AQQ10 IFIS: Internet Flight Information System
logo dgac
Miércoles 10 de Agosto del 2022
Buscar por aerodromo o helipuerto
Ingrese nombre de aeródromo, localidad o designador OACI:
METAR del 10-08-2022 a las 17:00 UTC
Para mayor información visite www.meteochile.cl
METAR SCAP 101700Z VRB01KT CAVOK 07/00 Q1018
Viento: dirección variable, velocidad 1 nudos
Visibilidad: 10 km o más,
    sin nubes bajo los 5.000 pies o bajo del MSA (Mínimo de Seguridad del Aeródromo),
    sin cumulonimbus, y sin fenómenos de tiempo significativo en el aeródromo o alrededores
Temperatura: 7 °C
Rocío: 0 °C
Humedad_relativa: 61%
Presión: 1018 hPa
METAR del 10-08-2022 a las 16:00 UTC
Para mayor información visite www.meteochile.cl
METAR SCAP 101600Z 24003KT 190V300 CAVOK 04/M01 Q1019
Viento: dirección 240 grados, velocidad 3 nudos
Viento con dirección variable entre 190 y 300 grados
Visibilidad: 10 km o más,
    sin nubes bajo los 5.000 pies o bajo del MSA (Mínimo de Seguridad del Aeródromo),
    sin cumulonimbus, y sin fenómenos de tiempo significativo en el aeródromo o alrededores
Temperatura: 4 °C
Rocío: -1 °C
Humedad_relativa: 70%
Presión: 1019 hPa
METAR del 10-08-2022 a las 15:00 UTC
Para mayor información visite www.meteochile.cl
METAR SCAP 101500Z VRB01KT CAVOK 01/M01 Q1019
Viento: dirección variable, velocidad 1 nudos
Visibilidad: 10 km o más,
    sin nubes bajo los 5.000 pies o bajo del MSA (Mínimo de Seguridad del Aeródromo),
    sin cumulonimbus, y sin fenómenos de tiempo significativo en el aeródromo o alrededores
Temperatura: 1 °C
Rocío: -1 °C
Humedad_relativa: 86%
Presión: 1019 hPa
METAR del 10-08-2022 a las 14:00 UTC
Para mayor información visite www.meteochile.cl
METAR SCAP 101400Z VRB02KT CAVOK M00/M02 Q1019
Viento: dirección variable, velocidad 2 nudos
Visibilidad: 10 km o más,
    sin nubes bajo los 5.000 pies o bajo del MSA (Mínimo de Seguridad del Aeródromo),
    sin cumulonimbus, y sin fenómenos de tiempo significativo en el aeródromo o alrededores
Temperatura: 0 °C
Rocío: -2 °C
Humedad_relativa: 86%
Presión: 1019 hPa
METAR del 10-08-2022 a las 13:00 UTC
Para mayor información visite www.meteochile.cl
METAR SCAP 101300Z VRB01KT CAVOK M03/M03 Q1020
Viento: dirección variable, velocidad 1 nudos
Visibilidad: 10 km o más,
    sin nubes bajo los 5.000 pies o bajo del MSA (Mínimo de Seguridad del Aeródromo),
    sin cumulonimbus, y sin fenómenos de tiempo significativo en el aeródromo o alrededores
Temperatura: -3 °C
Rocío: -3 °C
Humedad_relativa: 100%
Presión: 1020 hPa
SPECI del 10-08-2022 a las 12:50 UTC
Para mayor información visite www.meteochile.cl
SPECI SCAP 101250Z AUTO VRB02KT 3300 ////// M03/M04 Q1020
Viento: dirección variable, velocidad 2 nudos
Visibilidad: 3300 metros
Temperatura: -3 °C
Rocío: -4 °C
Humedad_relativa: 93%
Presión: 1020 hPa
SPECI del 10-08-2022 a las 12:18 UTC
Para mayor información visite www.meteochile.cl
SPECI SCAP 101218Z AUTO VRB02KT 7000 ////// M03/M04 Q1020
Viento: dirección variable, velocidad 2 nudos
Visibilidad: 7000 metros
Temperatura: -3 °C
Rocío: -4 °C
Humedad_relativa: 93%
Presión: 1020 hPa
SPECI del 10-08-2022 a las 12:06 UTC
Para mayor información visite www.meteochile.cl
SPECI SCAP 101206Z AUTO VRB01KT 4500 ////// M03/M04 Q1020
Viento: dirección variable, velocidad 1 nudos
Visibilidad: 4500 metros
Temperatura: -3 °C
Rocío: -4 °C
Humedad_relativa: 93%
Presión: 1020 hPa
METAR del 10-08-2022 a las 12:00 UTC
Para mayor información visite www.meteochile.cl
METAR SCAP 101200Z AUTO VRB01KT 9000 ////// M03/M04 Q1019
Viento: dirección variable, velocidad 1 nudos
Visibilidad: 9000 metros
Temperatura: -3 °C
Rocío: -4 °C
Humedad_relativa: 93%
Presión: 1019 hPa
SPECI del 10-08-2022 a las 11:45 UTC
Para mayor información visite www.meteochile.cl
SPECI SCAP 101145Z AUTO VRB01KT 9999 ////// M04/M05 Q1020
Viento: dirección variable, velocidad 1 nudos
Visibilidad: 10 km o más
Temperatura: -4 °C
Rocío: -5 °C
Humedad_relativa: 93%
Presión: 1020 hPa